Time;durP1;ratioP1;P1;durP2;ratioP2;P2;SDS_P1;SDS_P2;PMS_P1;PMS_P2;Temp;Humidity;BMP_temperature;BMP_pressure;BME280_temperature;BME280_humidity;BME280_pressure;Samples;Min_cycle;Max_cycle;Signal;HPM_P1;HPM_P2
2022/01/05 00:40:00;;;;;;;0.40;0.40;;;;;;;3.25;100.00;100163.34;6256655;22;20020;-92
2022/01/05 00:42:26;;;;;;;0.47;0.47;;;;;;;3.20;100.00;100157.34;6253169;23;20066;-93
2022/01/05 00:44:53;;;;;;;0.95;0.95;;;;;;;3.10;100.00;100159.31;6257607;23;20318;-93
2022/01/05 00:47:20;;;;;;;2.17;1.05;;;;;;;3.08;100.00;100154.13;6257278;23;20000;-92
2022/01/05 00:49:46;;;;;;;0.65;0.65;;;;;;;3.11;100.00;100156.66;6258276;23;20028;-92
2022/01/05 00:52:12;;;;;;;0.55;0.55;;;;;;;3.05;100.00;100156.81;6253548;23;20015;-93
2022/01/05 00:54:40;;;;;;;0.52;0.52;;;;;;;2.97;100.00;100147.38;6252993;23;20001;-92
2022/01/05 00:57:06;;;;;;;1.75;1.00;;;;;;;2.99;100.00;100156.94;6257226;22;20008;-93
2022/01/05 00:59:32;;;;;;;0.85;0.85;;;;;;;2.80;100.00;100157.41;6267637;22;20004;-93
2022/01/05 01:01:57;;;;;;;0.40;0.40;;;;;;;2.73;100.00;100161.91;6260935;23;20035;-92
2022/01/05 01:04:24;;;;;;;0.40;0.40;;;;;;;2.80;100.00;100165.25;6249481;23;19992;-92
2022/01/05 01:06:49;;;;;;;0.88;0.88;;;;;;;2.73;100.00;100168.91;6250365;23;20004;-92
2022/01/05 01:09:15;;;;;;;0.40;0.40;;;;;;;2.68;100.00;100168.13;6248906;23;20306;-92
2022/01/05 01:11:40;;;;;;;0.75;0.75;;;;;;;2.73;100.00;100177.63;6249911;23;20004;-92
2022/01/05 01:14:12;;;;;;;2.03;0.60;;;;;;;2.77;100.00;100171.41;6251339;23;20119;-93
2022/01/05 01:16:46;;;;;;;0.93;0.93;;;;;;;2.64;100.00;100171.72;6250786;22;20039;-92
2022/01/05 01:19:12;;;;;;;0.65;0.60;;;;;;;2.53;100.00;100181.56;6252901;23;20024;-92
2022/01/05 01:21:43;;;;;;;0.50;0.50;;;;;;;2.61;100.00;100175.28;6251716;23;20035;-92
2022/01/05 01:24:18;;;;;;;0.40;0.40;;;;;;;2.61;100.00;100174.41;6250086;23;20078;-92
2022/01/05 01:26:55;;;;;;;0.30;0.30;;;;;;;2.72;100.00;100177.69;6252334;23;20004;-91
2022/01/05 01:29:26;;;;;;;0.70;0.70;;;;;;;2.63;100.00;100177.88;6272127;23;20004;-91
2022/01/05 01:31:58;;;;;;;1.30;1.25;;;;;;;2.67;100.00;100175.16;6271658;23;20024;-92
2022/01/05 01:34:26;;;;;;;0.40;0.40;;;;;;;2.49;100.00;100187.78;6271134;22;20010;-92
2022/01/05 01:36:57;;;;;;;0.50;0.50;;;;;;;2.35;100.00;100185.44;6269309;23;20004;-92
2022/01/05 01:39:32;;;;;;;0.45;0.45;;;;;;;2.27;100.00;100181.25;6269758;23;20000;-92
2022/01/05 01:42:09;;;;;;;0.30;0.30;;;;;;;2.29;100.00;100182.94;6253515;22;20015;-93
2022/01/05 01:44:41;;;;;;;0.40;0.40;;;;;;;2.46;100.00;100185.22;6259920;22;20004;-92
2022/01/05 01:47:09;;;;;;;0.40;0.40;;;;;;;2.46;100.00;100178.22;6251581;23;20004;-93
2022/01/05 01:49:41;;;;;;;0.60;0.60;;;;;;;2.49;100.00;100172.91;6252747;23;20008;-92
2022/01/05 01:52:07;;;;;;;0.30;0.30;;;;;;;2.46;100.00;100178.22;6251483;23;20009;-91
2022/01/05 01:54:35;;;;;;;0.93;0.93;;;;;;;2.40;100.00;100180.97;6250599;23;20022;-91
2022/01/05 01:57:02;;;;;;;0.30;0.30;;;;;;;2.23;100.00;100180.44;6249975;23;20027;-92
2022/01/05 01:59:28;;;;;;;0.65;0.65;;;;;;;2.17;100.00;100188.44;6249575;23;20004;-92
2022/01/05 02:01:54;;;;;;;0.35;0.35;;;;;;;2.12;100.00;100190.25;6249415;23;20012;-92
2022/01/05 02:04:20;;;;;;;0.47;0.47;;;;;;;2.23;100.00;100190.91;6250289;23;20012;-91
2022/01/05 02:06:45;;;;;;;0.77;0.77;;;;;;;2.38;100.00;100189.75;6250029;22;20046;-92
2022/01/05 02:09:11;;;;;;;0.40;0.40;;;;;;;2.40;100.00;100191.44;6248484;23;20015;-92
2022/01/05 02:11:38;;;;;;;0.43;0.43;;;;;;;2.43;100.00;100199.25;6250706;23;20000;-92
2022/01/05 02:14:04;;;;;;;0.50;0.50;;;;;;;2.46;100.00;100203.59;6249772;23;20023;-93
2022/01/05 02:16:32;;;;;;;0.40;0.40;;;;;;;2.72;100.00;100201.28;6250850;23;20484;-93
2022/01/05 02:18:58;;;;;;;0.50;0.50;;;;;;;2.67;100.00;100209.25;6258592;23;20007;-93
2022/01/05 02:21:32;;;;;;;0.40;0.40;;;;;;;2.84;100.00;100194.00;6256714;23;20004;-93
2022/01/05 02:23:58;;;;;;;0.30;0.30;;;;;;;2.90;100.00;100193.00;6259443;23;20027;-92
2022/01/05 02:26:24;;;;;;;0.60;0.60;;;;;;;3.05;100.00;100204.03;6257206;22;20026;-92
2022/01/05 02:28:50;;;;;;;0.40;0.40;;;;;;;3.10;100.00;100194.28;6252945;23;20016;-93
2022/01/05 02:31:15;;;;;;;0.30;0.30;;;;;;;3.12;100.00;100202.09;6256539;23;20000;-91
2022/01/05 02:33:41;;;;;;;0.38;0.38;;;;;;;3.14;100.00;100205.56;6257027;23;20012;-92
2022/01/05 02:36:11;;;;;;;0.45;0.45;;;;;;;3.04;100.00;100194.41;6256387;23;20375;-93
2022/01/05 02:38:36;;;;;;;0.60;0.60;;;;;;;3.12;100.00;100207.34;6259819;23;20442;-92
2022/01/05 02:41:08;;;;;;;0.38;0.30;;;;;;;3.13;100.00;100203.84;6261049;23;20328;-93
2022/01/05 02:43:44;;;;;;;1.50;1.42;;;;;;;3.07;100.00;100202.22;6266729;22;20059;-94
2022/01/05 02:46:18;;;;;;;0.70;0.70;;;;;;;3.08;100.00;100198.72;6288518;22;20003;-93
2022/01/05 02:48:45;;;;;;;0.40;0.40;;;;;;;3.04;100.00;100204.06;6285786;22;20067;-94
2022/01/05 02:51:11;;;;;;;0.47;0.47;;;;;;;3.07;100.00;100201.38;6293460;22;20007;-92
2022/01/05 02:53:37;;;;;;;0.30;0.30;;;;;;;3.15;100.00;100194.19;6298432;22;20424;-92
2022/01/05 02:56:03;;;;;;;0.40;0.40;;;;;;;3.09;100.00;100208.28;6294942;22;19999;-93
2022/01/05 02:58:29;;;;;;;0.30;0.30;;;;;;;3.17;100.00;100202.88;6287521;22;20023;-92
2022/01/05 03:00:55;;;;;;;0.30;0.30;;;;;;;3.20;100.00;100194.91;6287679;22;20006;-93
2022/01/05 03:03:20;;;;;;;0.30;0.30;;;;;;;3.32;100.00;100212.16;6289085;22;20014;-92
2022/01/05 03:05:45;;;;;;;0.30;0.30;;;;;;;3.22;100.00;100215.88;6289960;22;20424;-93
2022/01/05 03:08:11;;;;;;;0.45;0.45;;;;;;;3.18;100.00;100215.09;6288458;22;20007;-93
2022/01/05 03:10:37;;;;;;;0.30;0.30;;;;;;;3.22;100.00;100221.13;6295325;22;20000;-93
2022/01/05 03:13:04;;;;;;;0.40;0.40;;;;;;;3.25;100.00;100223.72;6284079;22;20073;-93
2022/01/05 03:15:30;;;;;;;0.40;0.40;;;;;;;3.22;100.00;100224.63;6284708;22;20007;-94
2022/01/05 03:17:55;;;;;;;0.40;0.40;;;;;;;3.29;100.00;100227.97;6285546;22;20488;-92
2022/01/05 03:20:22;;;;;;;0.50;0.50;;;;;;;3.23;100.00;100228.13;6286034;22;20026;-93
2022/01/05 03:22:51;;;;;;;0.50;0.50;;;;;;;3.17;100.00;100234.34;6285465;22;19999;-92
2022/01/05 03:25:16;;;;;;;0.50;0.50;;;;;;;3.10;100.00;100227.53;6296732;22;19988;-92
2022/01/05 03:27:50;;;;;;;0.40;0.40;;;;;;;3.04;100.00;100231.13;6278289;22;20030;-92
2022/01/05 03:30:25;;;;;;;1.20;0.93;;;;;;;3.11;100.00;100238.00;6306957;22;20004;-92
2022/01/05 03:35:20;;;;;;;0.47;0.47;;;;;;;3.33;100.00;100235.72;6287353;22;20090;-93
2022/01/05 03:37:58;;;;;;;0.65;0.65;;;;;;;3.38;100.00;100239.13;6290375;22;19999;-92
2022/01/05 03:40:27;;;;;;;0.40;0.40;;;;;;;3.40;100.00;100246.97;6305949;22;20075;-93
2022/01/05 03:43:02;;;;;;;0.40;0.40;;;;;;;3.58;100.00;100241.28;6306921;22;20011;-93
2022/01/05 03:45:30;;;;;;;0.40;0.40;;;;;;;3.53;100.00;100245.78;6302668;22;20420;-94
2022/01/05 03:48:02;;;;;;;0.30;0.30;;;;;;;3.60;100.00;100250.84;6290496;22;20004;-94
2022/01/05 03:50:34;;;;;;;0.50;0.50;;;;;;;3.72;100.00;100250.53;6290935;22;20027;-93
2022/01/05 03:53:04;;;;;;;0.55;0.55;;;;;;;3.69;100.00;100252.41;6289810;22;20035;-92
2022/01/05 03:55:31;;;;;;;3.63;0.73;;;;;;;3.71;100.00;100255.81;6288395;22;20007;-95
2022/01/05 03:57:58;;;;;;;0.38;0.38;;;;;;;3.87;100.00;100254.56;6286481;22;20010;-94
2022/01/05 04:00:29;;;;;;;0.30;0.30;;;;;;;3.93;100.00;100254.41;6283743;22;20004;-93
2022/01/05 04:03:10;;;;;;;0.40;0.40;;;;;;;4.01;100.00;100248.06;6284397;22;20003;-94
2022/01/05 04:05:36;;;;;;;0.32;0.32;;;;;;;3.98;100.00;100252.53;6281979;22;20059;-93
2022/01/05 04:08:02;;;;;;;0.40;0.40;;;;;;;3.99;100.00;100247.22;6281931;22;19999;-93
2022/01/05 04:10:27;;;;;;;0.40;0.40;;;;;;;3.98;100.00;100252.53;6282394;22;20075;-94
2022/01/05 04:12:53;;;;;;;0.32;0.32;;;;;;;3.97;100.00;100253.44;6281395;22;20000;-92
2022/01/05 04:15:22;;;;;;;0.93;0.93;;;;;;;4.09;100.00;100259.25;6282657;22;20006;-94
2022/01/05 04:17:48;;;;;;;0.40;0.40;;;;;;;4.10;100.00;100270.59;6282413;22;20003;-93
2022/01/05 04:20:20;;;;;;;0.60;0.60;;;;;;;4.15;100.00;100268.72;6281813;22;20094;-94
2022/01/05 04:22:45;;;;;;;0.40;0.40;;;;;;;4.11;100.00;100272.34;6295985;22;19991;-94
2022/01/05 04:25:11;;;;;;;0.30;0.30;;;;;;;4.12;100.00;100276.69;6288647;22;20000;-92
2022/01/05 04:27:50;;;;;;;1.33;1.23;;;;;;;4.16;100.00;100273.94;6286332;22;20000;-93
2022/01/05 04:30:21;;;;;;;0.40;0.40;;;;;;;4.22;100.00;100267.66;6285315;22;20011;-93
2022/01/05 04:32:47;;;;;;;0.40;0.40;;;;;;;4.20;100.00;100265.09;6289073;22;20367;-93
2022/01/05 04:35:14;;;;;;;0.82;0.73;;;;;;;4.26;100.00;100264.03;6289317;22;20014;-93
2022/01/05 04:37:40;;;;;;;0.30;0.30;;;;;;;4.27;100.00;100271.03;6304283;22;20007;-91
2022/01/05 04:40:07;;;;;;;0.30;0.30;;;;;;;4.25;100.00;100267.59;6304121;22;20004;-93
2022/01/05 04:42:33;;;;;;;0.45;0.45;;;;;;;4.33;100.00;100278.75;6295920;22;20411;-93
2022/01/05 04:44:58;;;;;;;0.45;0.45;;;;;;;4.24;100.00;100265.84;6205590;22;1268526;-93
2022/01/05 04:47:24;;;;;;;0.77;0.77;;;;;;;4.21;100.00;100264.16;6253175;22;20034;-93
2022/01/05 04:50:05;;;;;;;0.40;0.40;;;;;;;4.15;100.00;100261.69;6256948;23;20159;-94
2022/01/05 04:52:30;;;;;;;0.95;0.85;;;;;;;4.18;100.00;100272.13;6252900;23;20012;-93
2022/01/05 04:55:05;;;;;;;0.40;0.40;;;;;;;4.20;100.00;100265.09;6253445;23;20008;-93
2022/01/05 05:01:00;;;;;;;0.30;0.30;;;;;;;4.20;100.00;100277.34;6255591;22;20027;-93
2022/01/05 05:03:34;;;;;;;0.40;0.40;;;;;;;4.25;100.00;100285.97;6252065;23;20024;-93
2022/01/05 05:06:00;;;;;;;0.65;0.65;;;;;;;4.26;100.00;100283.31;6250919;23;20456;-93
2022/01/05 05:08:25;;;;;;;0.85;0.82;;;;;;;4.26;100.00;100285.94;6249764;23;20019;-92
2022/01/05 05:10:50;;;;;;;0.30;0.30;;;;;;;4.24;100.00;100286.88;6250097;23;20000;-93
2022/01/05 05:13:16;;;;;;;0.40;0.40;;;;;;;4.28;100.00;100286.78;6249532;23;20007;-93
2022/01/05 05:15:41;;;;;;;0.40;0.40;;;;;;;4.28;100.00;100288.53;6249516;23;20008;-93
2022/01/05 05:18:07;;;;;;;0.40;0.40;;;;;;;4.18;100.00;100285.28;6249813;22;20016;-93
2022/01/05 05:20:38;;;;;;;0.30;0.30;;;;;;;4.06;100.00;100295.22;6252290;23;20008;-94
2022/01/05 05:23:04;;;;;;;0.40;0.40;;;;;;;4.01;100.00;100299.72;6249906;23;20015;-93
2022/01/05 05:25:32;;;;;;;0.40;0.40;;;;;;;3.98;100.00;100305.06;6251036;23;20139;-93
2022/01/05 05:28:10;;;;;;;1.15;0.82;;;;;;;4.07;100.00;100310.09;6251464;23;19987;-93
2022/01/05 05:30:36;;;;;;;0.50;0.50;;;;;;;4.08;100.00;100291.66;6252523;22;20012;-93
2022/01/05 05:33:03;;;;;;;1.95;0.55;;;;;;;4.21;100.00;100295.72;6256784;23;20004;-93
2022/01/05 05:35:28;;;;;;;1.25;0.60;;;;;;;4.18;100.00;100302.78;6254720;23;20004;-94
2022/01/05 05:37:56;;;;;;;0.30;0.30;;;;;;;4.26;100.00;100306.09;6250241;23;20490;-93
2022/01/05 05:40:22;;;;;;;0.40;0.40;;;;;;;4.28;100.00;100299.91;6253645;23;20082;-93
2022/01/05 05:42:48;;;;;;;0.30;0.30;;;;;;;4.32;100.00;100312.06;6252662;23;20008;-93
2022/01/05 05:45:14;;;;;;;1.48;1.10;;;;;;;4.25;100.00;100294.75;6252843;23;20012;-94
2022/01/05 05:47:40;;;;;;;0.30;0.30;;;;;;;4.25;100.00;100297.38;6254363;23;20007;-94
2022/01/05 05:50:06;;;;;;;0.55;0.55;;;;;;;4.27;100.00;100289.44;6256032;23;20058;-93
2022/01/05 05:52:32;;;;;;;1.00;0.75;;;;;;;4.18;100.00;100280.03;6257311;23;20055;-93
2022/01/05 05:55:01;;;;;;;2.08;1.75;;;;;;;4.13;100.00;100284.53;6260047;23;20007;-93
2022/01/05 05:57:26;;;;;;;0.30;0.30;;;;;;;4.04;100.00;100295.28;6256780;22;20092;-93
2022/01/05 05:59:55;;;;;;;0.60;0.60;;;;;;;4.01;100.00;100287.47;6254563;23;20008;-94
2022/01/05 06:02:24;;;;;;;0.32;0.32;;;;;;;3.96;100.00;100296.34;6253890;23;20327;-92
2022/01/05 06:04:52;;;;;;;0.30;0.30;;;;;;;3.94;100.00;100290.28;6256449;23;20011;-93
2022/01/05 06:07:26;;;;;;;0.38;0.38;;;;;;;3.98;100.00;100295.44;6259044;22;20004;-94
2022/01/05 06:09:55;;;;;;;0.57;0.57;;;;;;;4.01;100.00;100300.59;6260574;22;20012;-92
2022/01/05 06:12:22;;;;;;;0.47;0.47;;;;;;;4.18;100.00;100310.69;6256110;22;20081;-94
2022/01/05 06:14:47;;;;;;;0.30;0.30;;;;;;;4.28;100.00;100304.31;6259553;22;20010;-93
2022/01/05 06:17:13;;;;;;;0.40;0.40;;;;;;;4.21;100.00;100307.97;6259056;23;20004;-93
2022/01/05 06:19:50;;;;;;;0.47;0.47;;;;;;;4.33;100.00;100308.53;6247909;22;20022;-96
2022/01/05 06:22:15;;;;;;;1.42;1.33;;;;;;;4.42;100.00;100315.31;6252931;23;20000;-93
2022/01/05 06:24:50;;;;;;;0.30;0.30;;;;;;;4.42;100.00;100315.31;6259449;23;20004;-95
2022/01/05 06:27:17;;;;;;;0.38;0.38;;;;;;;4.52;100.00;100315.03;6255985;22;20004;-93
2022/01/05 14:07:47;;;;;;;0.30;0.30;;;;;;;6.02;100.00;100860.63;6227246;22;20056;-82
2022/01/05 14:10:30;;;;;;;0.88;0.88;;;;;;;6.08;100.00;100860.47;6252051;23;20020;-91
2022/01/05 14:13:13;;;;;;;0.40;0.30;;;;;;;6.06;100.00;100862.28;6248559;22;20016;-84
2022/01/05 14:15:42;;;;;;;0.95;0.95;;;;;;;6.06;100.00;100878.13;6248670;23;20007;-81
2022/01/05 14:18:11;;;;;;;0.40;0.40;;;;;;;6.02;100.00;100873.81;6247086;23;20121;-81
2022/01/05 14:21:02;;;;;;;0.60;0.60;;;;;;;6.02;100.00;100875.56;6247568;22;20432;-80
2022/01/05 14:23:42;;;;;;;0.70;0.68;;;;;;;5.90;100.00;100873.22;6243299;23;20004;-80
2022/01/05 14:26:30;;;;;;;0.50;0.50;;;;;;;5.95;100.00;100888.03;6246450;23;20087;-81
2022/01/05 14:28:59;;;;;;;0.40;0.40;;;;;;;5.98;100.00;100881.81;6247377;23;20004;-81
2022/01/05 14:31:32;;;;;;;0.40;0.40;;;;;;;5.99;100.00;100883.53;6248912;23;20012;-80
2022/01/05 14:33:57;;;;;;;0.70;0.70;;;;;;;6.03;100.00;100888.72;6248168;23;19996;-81
2022/01/05 14:36:34;;;;;;;0.38;0.38;;;;;;;6.14;100.00;100893.75;6248853;23;20008;-80
2022/01/05 14:39:05;;;;;;;0.50;0.50;;;;;;;5.97;100.00;100891.50;6243849;23;20424;-81
2022/01/05 14:41:35;;;;;;;0.70;0.70;;;;;;;6.17;100.00;100905.09;6248148;23;20361;-81
2022/01/05 14:44:15;;;;;;;0.30;0.30;;;;;;;6.22;100.00;100902.34;6248537;23;20007;-79
2022/01/05 14:46:43;;;;;;;1.52;1.42;;;;;;;6.07;100.00;100892.16;6248768;23;20004;-81
2022/01/05 14:49:10;;;;;;;0.45;0.45;;;;;;;6.02;100.00;100901.91;6248283;23;20004;-80
2022/01/05 14:51:36;;;;;;;0.50;0.50;;;;;;;6.03;100.00;100930.03;6248081;22;20008;-80
2022/01/05 14:54:03;;;;;;;0.73;0.73;;;;;;;5.92;100.00;100930.28;6247030;23;20004;-80
2022/01/05 14:56:30;;;;;;;0.68;0.68;;;;;;;5.85;100.00;100930.44;6248019;23;20004;-80
2022/01/05 14:58:56;;;;;;;0.77;0.73;;;;;;;5.77;100.00;100930.56;6246033;23;20009;-81
2022/01/05 15:01:22;;;;;;;0.90;0.90;;;;;;;5.68;100.00;100925.50;6247700;23;20034;-81
2022/01/05 15:03:48;;;;;;;0.60;0.60;;;;;;;5.70;100.00;100931.63;6247371;23;20011;-81
2022/01/05 15:06:13;;;;;;;0.40;0.40;;;;;;;5.61;100.00;100930.97;6247364;23;20008;-81
2022/01/05 15:08:38;;;;;;;1.67;1.58;;;;;;;5.56;100.00;100943.34;6247194;23;20011;-81
2022/01/05 15:11:04;;;;;;;0.30;0.30;;;;;;;5.54;100.00;100956.56;6248034;23;20004;-80
2022/01/05 15:13:32;;;;;;;0.30;0.30;;;;;;;5.49;100.00;100960.16;6247140;23;20000;-81
2022/01/05 15:16:01;;;;;;;1.10;1.05;;;;;;;5.52;100.00;100962.72;6247003;23;20081;-80
2022/01/05 15:18:27;;;;;;;0.70;0.70;;;;;;;5.61;100.00;100965.22;6248480;23;20043;-80
2022/01/05 15:20:52;;;;;;;0.40;0.40;;;;;;;5.62;100.00;100977.47;6247413;23;20255;-80
2022/01/05 15:23:19;;;;;;;1.42;1.35;;;;;;;5.63;100.00;100968.66;6221812;23;20004;-80
2022/01/05 15:25:44;;;;;;;0.50;0.50;;;;;;;5.59;100.00;100967.88;6248429;23;20040;-81
2022/01/05 15:28:10;;;;;;;1.40;0.88;;;;;;;5.59;100.00;100972.25;6246825;23;20004;-80
2022/01/05 15:30:36;;;;;;;0.40;0.40;;;;;;;5.57;100.00;100985.47;6248254;23;20011;-80
2022/01/05 15:33:01;;;;;;;0.30;0.30;;;;;;;5.59;100.00;100978.41;6247376;23;20015;-81
2022/01/05 15:35:26;;;;;;;2.67;0.50;;;;;;;5.56;100.00;100996.88;6245301;23;20069;-81
2022/01/05 15:37:52;;;;;;;0.40;0.40;;;;;;;5.51;100.00;101000.53;6247665;22;20039;-81
2022/01/05 15:40:19;;;;;;;0.30;0.30;;;;;;;5.34;100.00;100999.97;6246585;23;20044;-79
2022/01/05 15:42:45;;;;;;;0.38;0.38;;;;;;;5.46;100.00;101005.00;6246472;23;20004;-79
2022/01/05 15:45:10;;;;;;;1.45;1.35;;;;;;;5.47;100.00;101012.88;6247725;23;20012;-79
2022/01/05 15:47:36;;;;;;;0.40;0.40;;;;;;;5.49;100.00;101005.81;6248245;23;20013;-79
2022/01/05 15:50:02;;;;;;;0.90;0.90;;;;;;;5.52;100.00;101016.28;6246776;23;20354;-79
2022/01/05 15:52:28;;;;;;;1.35;1.25;;;;;;;5.57;100.00;101024.97;6248431;23;20066;-78
2022/01/05 15:54:58;;;;;;;0.43;0.43;;;;;;;5.60;100.00;101006.47;6221766;23;20379;-79
2022/01/05 16:01:06;;;;;;;0.52;0.50;;;;;;;5.53;100.00;101022.44;6249043;23;20000;-79
2022/01/05 16:02:58;;;;;;;0.75;0.75;;;;;;;5.52;100.00;101031.22;6248757;23;20065;-79
2022/01/05 16:05:23;;;;;;;0.95;0.95;;;;;;;5.53;100.00;101022.44;6250068;23;20069;-79
2022/01/05 16:07:50;;;;;;;0.60;0.45;;;;;;;5.61;100.00;101026.66;6249374;23;20009;-79
2022/01/05 16:10:15;;;;;;;0.95;0.95;;;;;;;5.60;100.00;101040.72;6249388;23;20039;-79
2022/01/05 16:12:41;;;;;;;0.30;0.30;;;;;;;5.62;100.00;101057.38;6248643;23;20004;-79
2022/01/05 16:15:08;;;;;;;0.40;0.40;;;;;;;5.64;100.00;101060.00;6248802;23;20005;-80
2022/01/05 16:17:33;;;;;;;1.48;1.38;;;;;;;5.65;100.00;101056.44;6249210;23;20000;-80
2022/01/05 16:19:58;;;;;;;0.45;0.45;;;;;;;5.77;100.00;101067.63;6248857;23;20015;-80
2022/01/05 16:22:24;;;;;;;0.75;0.75;;;;;;;5.71;100.00;101064.22;6248630;23;20004;-78
2022/01/05 16:24:49;;;;;;;0.93;0.93;;;;;;;5.72;100.00;101074.72;6250243;23;20031;-78
2022/01/05 16:27:15;;;;;;;0.90;0.63;;;;;;;5.73;100.00;101081.75;6250033;23;20075;-79
2022/01/05 16:29:40;;;;;;;0.68;0.63;;;;;;;5.68;100.00;101085.38;6249433;23;20004;-79
2022/01/05 16:32:08;;;;;;;0.73;0.73;;;;;;;5.59;100.00;101089.06;6249092;23;20012;-79
2022/01/05 16:34:34;;;;;;;0.40;0.40;;;;;;;5.63;100.00;101098.63;6223986;23;20004;-79
2022/01/05 16:36:59;;;;;;;0.50;0.50;;;;;;;5.43;100.00;101086.72;6222612;22;20003;-79
2022/01/05 16:39:25;;;;;;;0.60;0.60;;;;;;;5.43;100.00;101089.34;6248644;23;20011;-80
2022/01/05 16:41:50;;;;;;;0.30;0.30;;;;;;;5.48;100.00;101091.03;6249334;23;20367;-79
2022/01/05 16:44:15;;;;;;;0.43;0.43;;;;;;;5.36;100.00;101099.13;6249923;23;20079;-79
2022/01/05 16:46:42;;;;;;;0.32;0.32;;;;;;;5.37;100.00;101092.97;6248886;23;20000;-79
2022/01/05 16:49:09;;;;;;;0.30;0.30;;;;;;;5.26;100.00;101089.66;6249429;23;20004;-79
2022/01/05 16:51:36;;;;;;;0.55;0.45;;;;;;;5.15;100.00;101096.00;6249949;23;19985;-79
2022/01/05 16:54:02;;;;;;;0.40;0.40;;;;;;;5.12;100.00;101096.91;6248657;23;20012;-79
2022/01/05 17:00:24;;;;;;;0.43;0.43;;;;;;;4.97;100.00;101089.25;6248754;23;20004;-79
2022/01/05 17:02:02;;;;;;;0.90;0.82;;;;;;;4.82;100.00;101113.19;6249375;23;20031;-79
2022/01/05 17:04:27;;;;;;;1.05;0.95;;;;;;;4.83;100.00;101114.94;6249734;23;20000;-78
2022/01/05 17:07:08;;;;;;;0.43;0.43;;;;;;;4.94;100.00;101125.28;6247582;23;20058;-87
2022/01/05 17:09:34;;;;;;;0.90;0.90;;;;;;;4.89;100.00;101120.09;6249742;23;20015;-84
2022/01/05 17:12:04;;;;;;;0.57;0.57;;;;;;;4.89;100.00;101127.97;6247476;23;20000;-81
2022/01/05 17:14:29;;;;;;;3.08;1.95;;;;;;;4.84;100.00;101127.19;6248780;23;20302;-82
2022/01/05 17:16:55;;;;;;;0.45;0.45;;;;;;;4.84;100.00;101136.84;6249176;23;20007;-81
2022/01/05 17:19:20;;;;;;;0.63;0.63;;;;;;;4.88;100.00;101133.28;6249195;23;20012;-81
2022/01/05 17:21:48;;;;;;;0.30;0.30;;;;;;;5.00;100.00;101141.84;6248871;23;20494;-81
2022/01/05 17:24:13;;;;;;;0.90;0.90;;;;;;;4.92;100.00;101141.09;6249294;23;20026;-81
2022/01/05 17:26:38;;;;;;;0.98;0.98;;;;;;;4.88;100.00;101152.56;6249333;23;20006;-81
2022/01/05 17:29:05;;;;;;;0.50;0.50;;;;;;;4.88;100.00;101151.69;6249082;23;20015;-81
2022/01/05 17:31:31;;;;;;;1.77;1.67;;;;;;;4.90;100.00;101158.66;6249673;23;20011;-81
2022/01/05 17:33:57;;;;;;;1.05;1.05;;;;;;;4.80;100.00;101166.72;6249329;23;20305;-81
2022/01/05 17:36:24;;;;;;;0.40;0.40;;;;;;;4.69;100.00;101170.38;6249589;23;20075;-81
2022/01/05 17:38:58;;;;;;;0.85;0.82;;;;;;;4.71;100.00;101173.00;6248758;23;20012;-81
2022/01/05 17:41:24;;;;;;;0.38;0.38;;;;;;;4.76;100.00;101165.88;6248493;23;20409;-82
2022/01/05 17:43:49;;;;;;;0.40;0.40;;;;;;;4.83;100.00;101167.56;6249305;23;20031;-81
2022/01/05 17:46:16;;;;;;;0.40;0.40;;;;;;;5.05;100.00;101174.25;6249792;23;20008;-84
2022/01/05 17:48:46;;;;;;;2.28;1.33;;;;;;;5.03;100.00;101175.16;6248600;23;20000;-88
2022/01/05 17:51:18;;;;;;;0.40;0.40;;;;;;;5.02;100.00;101200.63;6248178;23;20066;-81
2022/01/05 17:53:44;;;;;;;0.50;0.50;;;;;;;5.11;100.00;101187.31;6247959;23;20008;-80
2022/01/05 17:56:11;;;;;;;0.38;0.38;;;;;;;5.18;100.00;101185.47;6249117;23;20000;-79
2022/01/05 17:58:36;;;;;;;2.05;1.23;;;;;;;5.15;100.00;101196.03;6249167;23;20004;-80
2022/01/05 18:01:02;;;;;;;0.63;0.63;;;;;;;5.18;100.00;101198.63;6249503;23;20485;-80
2022/01/05 18:03:27;;;;;;;0.50;0.50;;;;;;;5.14;100.00;101195.16;6248920;23;20134;-80
2022/01/05 18:05:53;;;;;;;0.60;0.60;;;;;;;5.12;100.00;101203.97;6249455;23;20011;-82
2022/01/05 18:08:19;;;;;;;0.88;0.85;;;;;;;5.12;100.00;101202.19;6249328;23;20008;-85
2022/01/05 18:10:45;;;;;;;0.68;0.68;;;;;;;5.12;100.00;101202.19;6247556;23;20024;-78
2022/01/05 18:13:11;;;;;;;0.68;0.68;;;;;;;5.17;100.00;101207.44;6247989;23;20008;-78
2022/01/05 18:15:36;;;;;;;1.52;1.42;;;;;;;5.13;100.00;101217.13;6248791;23;20058;-78
2022/01/05 18:18:02;;;;;;;2.03;1.92;;;;;;;5.10;100.00;101214.53;6246931;23;20098;-79
2022/01/05 18:20:29;;;;;;;0.45;0.45;;;;;;;4.98;100.00;101230.47;6248442;22;20023;-77
2022/01/05 18:22:55;;;;;;;3.70;1.95;;;;;;;4.99;100.00;101242.78;6248164;23;19996;-79
2022/01/05 18:25:21;;;;;;;0.40;0.40;;;;;;;5.29;100.00;101244.97;6247298;23;20066;-79
2022/01/05 18:27:48;;;;;;;0.40;0.40;;;;;;;5.27;100.00;101256.41;6244582;23;20309;-79
2022/01/05 18:30:14;;;;;;;0.60;0.60;;;;;;;5.26;100.00;101255.56;6247031;23;20012;-79
2022/01/05 18:32:40;;;;;;;0.63;0.63;;;;;;;5.14;100.00;101255.72;6247738;23;20079;-81
2022/01/05 18:35:09;;;;;;;1.85;1.75;;;;;;;5.02;100.00;101258.53;6246461;23;20035;-79
2022/01/05 18:37:38;;;;;;;0.75;0.75;;;;;;;4.93;100.00;101257.78;6247254;23;20044;-81
2022/01/05 18:40:09;;;;;;;0.45;0.45;;;;;;;4.94;100.00;101268.28;6247715;23;20012;-82
2022/01/05 18:42:35;;;;;;;1.27;1.17;;;;;;;4.95;100.00;101266.53;6248089;23;20000;-80
2022/01/05 18:45:21;;;;;;;1.95;1.25;;;;;;;4.99;100.00;101274.38;6247377;23;20007;-80
2022/01/05 18:47:46;;;;;;;0.93;0.93;;;;;;;5.03;100.00;101281.31;6248124;23;20032;-80
2022/01/05 18:50:11;;;;;;;1.02;1.00;;;;;;;4.98;100.00;101288.38;6247542;23;20332;-80
2022/01/05 18:52:36;;;;;;;5.63;1.25;;;;;;;4.97;100.00;101294.56;6247647;23;20333;-81
2022/01/05 18:55:02;;;;;;;0.30;0.30;;;;;;;4.91;100.00;101293.75;6247112;23;20081;-80
2022/01/05 18:57:28;;;;;;;0.70;0.70;;;;;;;4.81;100.00;101298.25;6248284;22;20039;-80
2022/01/05 18:59:54;;;;;;;0.40;0.40;;;;;;;4.76;100.00;101294.81;6247901;23;20016;-81
2022/01/05 19:02:19;;;;;;;0.40;0.40;;;;;;;4.71;100.00;101294.88;6248122;23;20349;-80
2022/01/05 19:04:48;;;;;;;1.08;0.98;;;;;;;4.80;100.00;101288.63;6247569;22;20137;-80
2022/01/05 19:07:19;;;;;;;0.90;0.90;;;;;;;4.65;100.00;101301.94;6248219;23;20123;-80
2022/01/05 19:09:44;;;;;;;0.70;0.70;;;;;;;4.57;100.00;101296.78;6247839;23;20005;-80
2022/01/05 19:12:11;;;;;;;0.77;0.77;;;;;;;4.49;100.00;101305.66;6247042;23;20004;-86
2022/01/05 19:14:36;;;;;;;0.63;0.63;;;;;;;4.52;100.00;101306.47;6247603;23;20014;-88
2022/01/05 19:17:02;;;;;;;0.40;0.40;;;;;;;4.34;100.00;101311.06;6246659;23;20343;-84
2022/01/05 19:19:30;;;;;;;0.65;0.60;;;;;;;4.17;100.00;101308.63;6248019;23;20004;-84
2022/01/05 19:21:56;;;;;;;1.98;1.27;;;;;;;4.19;100.00;101316.50;6248175;23;20008;-84
2022/01/05 19:24:21;;;;;;;0.50;0.50;;;;;;;4.37;100.00;101325.06;6248550;23;20058;-84
2022/01/05 19:26:47;;;;;;;0.52;0.52;;;;;;;4.46;100.00;101335.47;6247530;23;20074;-84
2022/01/05 19:29:12;;;;;;;0.50;0.50;;;;;;;4.77;100.00;101322.00;6248522;23;20015;-84
2022/01/05 19:31:38;;;;;;;1.08;1.08;;;;;;;4.74;100.00;101330.81;6249777;22;20440;-84
2022/01/05 19:34:05;;;;;;;1.23;1.10;;;;;;;4.73;100.00;101327.31;6250137;23;20011;-84
2022/01/05 19:36:56;;;;;;;0.65;0.63;;;;;;;4.62;100.00;101331.81;6249491;23;20080;-84
2022/01/05 19:42:44;;;;;;;0.80;0.80;;;;;;;4.50;100.00;101329.31;6249969;23;20513;-84
2022/01/05 19:45:09;;;;;;;1.42;1.33;;;;;;;4.49;100.00;101332.81;6249605;22;20009;-83
2022/01/05 19:47:34;;;;;;;0.93;0.88;;;;;;;4.49;100.00;101342.50;6248328;23;20023;-83
2022/01/05 19:50:00;;;;;;;0.60;0.60;;;;;;;4.35;100.00;101352.25;6246945;23;20083;-83
2022/01/05 19:52:35;;;;;;;0.60;0.60;;;;;;;4.34;100.00;101351.41;6249647;23;20000;-83
2022/01/05 19:55:17;;;;;;;1.45;1.35;;;;;;;4.21;100.00;101355.00;6248334;23;20107;-83
2022/01/05 19:57:42;;;;;;;0.40;0.40;;;;;;;4.24;100.00;101364.63;6248861;23;20000;-83
2022/01/05 20:00:11;;;;;;;3.10;1.30;;;;;;;4.12;100.00;101360.34;6248592;23;20031;-83